createdAt,value
2022-09-28T00:01:17.452Z,42.90
2022-09-28T00:03:50.144Z,42.90
2022-09-28T00:06:24.461Z,42.90
2022-09-28T00:08:52.013Z,42.90
2022-09-28T00:11:20.984Z,42.90
2022-09-28T00:13:53.800Z,43.00
2022-09-28T00:16:28.082Z,43.00
2022-09-28T00:18:55.756Z,43.00
2022-09-28T00:21:26.162Z,42.90
2022-09-28T00:24:31.484Z,42.90
2022-09-28T00:27:01.581Z,43.00
2022-09-28T00:29:32.586Z,42.90
2022-09-28T00:32:05.998Z,42.90
2022-09-28T00:34:45.732Z,43.00
2022-09-28T00:37:14.439Z,42.90
2022-09-28T00:39:41.949Z,42.90
2022-09-28T00:42:16.368Z,42.90
2022-09-28T00:44:57.563Z,43.00
2022-09-28T00:47:31.208Z,43.10
2022-09-28T00:50:26.343Z,42.40
2022-09-28T00:53:15.750Z,43.00
2022-09-28T00:55:55.240Z,43.00
2022-09-28T00:58:31.021Z,43.00
2022-09-28T01:01:00.169Z,43.00
2022-09-28T01:03:28.800Z,43.00
2022-09-28T01:05:59.563Z,43.00
2022-09-28T01:08:29.591Z,43.00
2022-09-28T01:10:59.625Z,43.10
2022-09-28T01:13:27.392Z,43.00
2022-09-28T01:16:33.853Z,43.00
2022-09-28T01:19:31.571Z,43.00
2022-09-28T01:22:29.210Z,43.10
2022-09-28T01:25:27.799Z,43.10
2022-09-28T01:28:05.623Z,43.00
2022-09-28T01:30:51.047Z,43.00
2022-09-28T01:33:26.769Z,43.10
2022-09-28T01:36:30.393Z,43.10
2022-09-28T01:39:15.100Z,43.10
2022-09-28T01:41:46.335Z,43.10
2022-09-28T01:44:19.096Z,43.00
2022-09-28T01:46:49.888Z,43.00
2022-09-28T01:49:25.795Z,43.00
2022-09-28T01:52:12.488Z,43.70
2022-09-28T01:54:46.369Z,43.10
2022-09-28T01:57:22.241Z,43.00
2022-09-28T02:00:07.413Z,43.10
2022-09-28T02:03:05.096Z,43.10
2022-09-28T02:05:40.543Z,43.10
2022-09-28T02:08:31.731Z,43.20
2022-09-28T02:11:16.588Z,43.10
2022-09-28T02:14:05.512Z,43.10
2022-09-28T02:16:43.826Z,43.10
2022-09-28T02:19:28.484Z,43.10
2022-09-28T02:22:23.450Z,43.20
2022-09-28T02:25:11.775Z,43.10
2022-09-28T02:27:48.034Z,43.10
2022-09-28T02:30:15.215Z,43.10
2022-09-28T02:32:46.880Z,43.10
2022-09-28T02:35:17.860Z,43.20
2022-09-28T02:37:46.186Z,43.10
2022-09-28T02:40:17.047Z,43.10
2022-09-28T02:43:17.748Z,43.10
2022-09-28T02:46:11.242Z,42.60
2022-09-28T02:49:17.346Z,42.50
2022-09-28T02:52:12.389Z,43.10
2022-09-28T02:55:35.060Z,43.20
2022-09-28T02:58:29.360Z,43.20
2022-09-28T03:01:12.924Z,43.10
2022-09-28T03:04:24.542Z,43.20
2022-09-28T03:07:06.101Z,43.20
2022-09-28T03:09:46.989Z,43.10
2022-09-28T03:12:18.711Z,43.20
2022-09-28T03:14:46.282Z,43.20
2022-09-28T03:17:13.127Z,43.20
2022-09-28T03:19:40.100Z,43.20
2022-09-28T03:22:09.125Z,43.20
2022-09-28T03:24:35.940Z,43.30
2022-09-28T03:27:02.991Z,43.20
2022-09-28T03:29:33.085Z,42.70
2022-09-28T03:32:00.059Z,43.30
2022-09-28T03:34:26.928Z,42.70
2022-09-28T03:36:53.779Z,43.20
2022-09-28T03:39:20.649Z,43.20
2022-09-28T03:41:47.535Z,43.20
2022-09-28T03:44:14.399Z,43.20
2022-09-28T03:46:41.244Z,43.20
2022-09-28T03:49:10.161Z,43.20
2022-09-28T03:51:37.069Z,43.20
2022-09-28T03:54:04.848Z,42.70
2022-09-28T03:56:34.552Z,43.30
2022-09-28T03:59:04.052Z,43.30
2022-09-28T04:01:31.207Z,43.30
2022-09-28T04:03:58.517Z,43.30
2022-09-28T04:06:26.357Z,43.30
2022-09-28T04:08:53.560Z,43.20
2022-09-28T04:11:20.513Z,43.30
2022-09-28T04:13:53.045Z,43.20
2022-09-28T04:16:19.916Z,43.30
2022-09-28T04:18:47.828Z,43.30
2022-09-28T04:21:18.011Z,43.30
2022-09-28T04:23:45.318Z,42.70
2022-09-28T04:26:24.948Z,43.20
2022-09-28T04:29:11.320Z,43.30
2022-09-28T04:31:42.309Z,43.30
2022-09-28T04:34:11.126Z,43.40
2022-09-28T04:36:38.083Z,43.30
2022-09-28T04:39:05.518Z,43.40
2022-09-28T04:41:32.739Z,43.40
2022-09-28T04:44:01.312Z,43.30
2022-09-28T04:46:28.209Z,43.30
2022-09-28T04:48:55.153Z,43.40
2022-09-28T04:51:22.111Z,43.70
2022-09-28T04:53:49.068Z,43.20
2022-09-28T04:56:18.019Z,43.50
2022-09-28T04:58:49.112Z,43.20
2022-09-28T05:01:23.328Z,42.70
2022-09-28T05:03:53.951Z,43.60
2022-09-28T05:06:22.655Z,43.20
2022-09-28T05:08:49.601Z,43.30
2022-09-28T05:11:16.467Z,43.30
2022-09-28T05:13:45.601Z,43.20
2022-09-28T05:16:16.197Z,43.30
2022-09-28T05:18:43.460Z,43.30
2022-09-28T05:21:13.349Z,43.40
2022-09-28T05:23:41.469Z,43.40
2022-09-28T05:26:08.458Z,43.30
2022-09-28T05:28:35.483Z,43.30
2022-09-28T05:31:05.109Z,43.20
2022-09-28T05:33:33.086Z,43.30
2022-09-28T05:36:01.498Z,43.30
2022-09-28T05:38:30.087Z,42.70
2022-09-28T05:40:57.195Z,43.30
2022-09-28T05:43:24.513Z,43.30
2022-09-28T05:45:55.384Z,43.30
2022-09-28T05:48:23.234Z,43.50
2022-09-28T05:50:53.475Z,43.30
2022-09-28T05:53:20.654Z,43.30
2022-09-28T05:55:48.363Z,43.30
2022-09-28T05:58:15.533Z,43.30
2022-09-28T06:00:43.081Z,43.30
2022-09-28T06:03:14.575Z,43.30
2022-09-28T06:05:46.731Z,43.30
2022-09-28T06:08:13.866Z,42.70
2022-09-28T06:10:41.191Z,43.40
2022-09-28T06:13:10.484Z,43.50
2022-09-28T06:15:38.979Z,43.60
2022-09-28T06:18:10.933Z,43.60
2022-09-28T06:20:42.875Z,43.80
2022-09-28T06:23:11.955Z,43.80
2022-09-28T06:25:39.978Z,43.80
2022-09-28T06:28:10.781Z,43.90
2022-09-28T06:30:39.589Z,44.10
2022-09-28T06:33:11.133Z,44.40
2022-09-28T06:35:38.251Z,44.10
2022-09-28T06:38:05.252Z,44.10
2022-09-28T06:40:33.477Z,44.10
2022-09-28T06:43:17.331Z,44.10
2022-09-28T06:45:50.512Z,44.20
2022-09-28T06:48:17.618Z,44.20
2022-09-28T06:50:45.002Z,44.20
2022-09-28T06:53:14.585Z,44.20
2022-09-28T06:55:49.071Z,44.30
2022-09-28T06:58:19.704Z,44.30
2022-09-28T07:00:50.285Z,44.30
2022-09-28T07:03:21.571Z,44.20
2022-09-28T07:05:54.831Z,43.80
2022-09-28T07:08:29.995Z,44.60
2022-09-28T07:10:56.909Z,44.30
2022-09-28T07:13:49.102Z,44.30
2022-09-28T07:16:17.127Z,43.70
2022-09-28T07:18:44.145Z,44.30
2022-09-28T07:21:21.615Z,44.20
2022-09-28T07:23:54.482Z,44.30
2022-09-28T07:26:24.849Z,43.80
2022-09-28T07:28:54.307Z,43.80
2022-09-28T07:31:25.275Z,43.80
2022-09-28T07:33:54.092Z,44.40
2022-09-28T07:36:22.748Z,43.80
2022-09-28T07:38:50.119Z,44.40
2022-09-28T07:41:21.644Z,44.20
2022-09-28T07:43:51.151Z,44.50
2022-09-28T07:46:18.140Z,44.70
2022-09-28T07:48:45.894Z,44.50
2022-09-28T07:51:12.957Z,44.60
2022-09-28T07:53:42.768Z,44.60
2022-09-28T07:56:09.832Z,44.10
2022-09-28T07:58:39.499Z,44.10
2022-09-28T08:01:12.040Z,44.70
2022-09-28T08:03:46.244Z,44.90
2022-09-28T08:06:17.637Z,44.90
2022-09-28T08:08:45.218Z,45.40
2022-09-28T08:11:14.926Z,45.80
2022-09-28T08:13:41.918Z,44.40
2022-09-28T08:16:08.914Z,44.40
2022-09-28T08:18:38.392Z,44.90
2022-09-28T08:21:25.493Z,44.70
2022-09-28T08:23:53.083Z,44.70
2022-09-28T08:26:20.073Z,44.70
2022-09-28T08:28:47.811Z,44.60
2022-09-28T08:31:14.991Z,44.60
2022-09-28T08:33:42.296Z,45.20
2022-09-28T08:36:10.776Z,44.60
2022-09-28T08:41:27.140Z,44.10
2022-09-28T08:44:00.964Z,44.70
2022-09-28T08:46:40.394Z,44.70
2022-09-28T08:49:31.980Z,44.60
2022-09-28T08:52:07.797Z,44.60
2022-09-28T08:55:00.956Z,44.60
2022-09-28T08:57:41.959Z,44.60
2022-09-28T09:00:22.874Z,44.50
2022-09-28T09:02:50.387Z,44.60
2022-09-28T09:05:26.043Z,44.50
2022-09-28T09:08:25.118Z,44.50
2022-09-28T09:11:08.617Z,44.60
2022-09-28T09:14:33.587Z,44.60
2022-09-28T09:17:11.309Z,44.60
2022-09-28T09:20:20.248Z,44.50
2022-09-28T09:23:10.642Z,44.50
2022-09-28T09:25:45.943Z,44.40
2022-09-28T09:29:08.172Z,44.40
2022-09-28T09:32:22.292Z,44.20
2022-09-28T09:34:58.034Z,44.10
2022-09-28T09:37:55.189Z,43.70
2022-09-28T09:40:46.760Z,44.30
2022-09-28T09:43:28.072Z,43.80
2022-09-28T09:46:24.290Z,44.40
2022-09-28T09:49:02.376Z,44.30
2022-09-28T09:51:48.772Z,44.30
2022-09-28T09:55:10.869Z,44.30
2022-09-28T09:57:54.884Z,44.30
2022-09-28T10:00:22.244Z,44.30
2022-09-28T10:02:50.873Z,44.20
2022-09-28T10:05:32.740Z,44.30
2022-09-28T10:08:19.964Z,44.00
2022-09-28T10:11:25.684Z,43.90
2022-09-28T10:13:52.666Z,43.90
2022-09-28T10:16:20.131Z,44.00
2022-09-28T10:18:49.577Z,43.90
2022-09-28T10:21:21.656Z,43.70
2022-09-28T10:23:58.595Z,43.10
2022-09-28T10:26:40.443Z,42.50
2022-09-28T10:29:26.625Z,42.60
2022-09-28T10:31:54.608Z,42.40
2022-09-28T10:34:30.429Z,42.80
2022-09-28T10:41:10.412Z,42.40
2022-09-28T10:44:06.252Z,42.50
2022-09-28T10:46:35.426Z,42.60
2022-09-28T10:49:15.715Z,43.10
2022-09-28T10:51:53.523Z,42.90
2022-09-28T10:54:52.264Z,42.90
2022-09-28T10:57:36.991Z,42.60
2022-09-28T11:00:40.508Z,42.40
2022-09-28T11:03:23.071Z,42.70
2022-09-28T11:06:07.162Z,42.30
2022-09-28T11:08:42.615Z,42.10
2022-09-28T11:11:16.917Z,42.20
2022-09-28T11:13:53.760Z,41.80
2022-09-28T11:16:32.889Z,42.00
2022-09-28T11:19:20.193Z,41.90
2022-09-28T11:21:47.403Z,41.90
2022-09-28T11:24:25.971Z,42.10
2022-09-28T11:27:00.208Z,41.80
2022-09-28T11:29:41.811Z,41.90
2022-09-28T11:32:15.639Z,42.00
2022-09-28T11:34:59.994Z,42.00
2022-09-28T11:38:10.482Z,41.90
2022-09-28T11:40:58.894Z,41.80
2022-09-28T11:44:12.510Z,41.90
2022-09-28T11:46:54.210Z,41.50
2022-09-28T11:49:58.864Z,42.00
2022-09-28T11:52:39.656Z,42.00
2022-09-28T11:55:41.273Z,42.00
2022-09-28T11:58:49.493Z,41.60
2022-09-28T12:01:43.705Z,42.00
2022-09-28T12:04:45.932Z,41.80
2022-09-28T12:07:34.122Z,42.10
2022-09-28T12:10:15.017Z,42.30
2022-09-28T12:13:02.299Z,42.20
2022-09-28T12:16:38.446Z,42.20
2022-09-28T12:19:10.806Z,42.10
2022-09-28T12:21:52.711Z,42.00
2022-09-28T12:24:39.936Z,41.50
2022-09-28T12:27:45.040Z,41.80
2022-09-28T12:30:25.275Z,41.80
2022-09-28T12:33:13.262Z,42.00
2022-09-28T12:36:19.352Z,42.30
2022-09-28T12:39:46.756Z,42.00
2022-09-28T12:42:56.905Z,41.90
2022-09-28T12:51:57.564Z,42.00
2022-09-28T12:55:00.765Z,41.60
2022-09-28T12:58:02.703Z,41.20
2022-09-28T13:00:47.327Z,41.60
2022-09-28T13:03:25.685Z,41.50
2022-09-28T13:06:24.378Z,41.60
2022-09-28T13:09:20.630Z,41.40
2022-09-28T13:12:26.275Z,41.50
2022-09-28T13:15:29.404Z,41.50
2022-09-28T13:18:17.342Z,41.60
2022-09-28T13:21:51.745Z,41.60
2022-09-28T13:24:34.082Z,41.50
2022-09-28T13:27:13.528Z,41.60
2022-09-28T13:29:42.951Z,41.60
2022-09-28T13:32:15.132Z,41.00
2022-09-28T13:34:43.229Z,41.60
2022-09-28T13:37:21.896Z,41.50
2022-09-28T13:39:56.410Z,41.50
2022-09-28T13:42:47.563Z,41.60
2022-09-28T13:45:42.379Z,41.50
2022-09-28T13:48:20.466Z,41.40
2022-09-28T13:51:11.883Z,41.50
2022-09-28T13:54:10.155Z,41.40
2022-09-28T13:57:26.557Z,41.40
2022-09-28T14:00:32.054Z,41.40
2022-09-28T14:03:25.573Z,41.00
2022-09-28T14:06:22.619Z,41.40
2022-09-28T14:09:15.876Z,41.50
2022-09-28T14:12:23.585Z,41.30
2022-09-28T14:14:52.157Z,41.40
2022-09-28T14:17:21.836Z,41.50
2022-09-28T14:20:08.567Z,41.50
2022-09-28T14:23:11.673Z,41.40
2022-09-28T14:25:58.469Z,41.40
2022-09-28T14:29:09.288Z,41.40
2022-09-28T14:31:43.593Z,41.40
2022-09-28T14:34:32.809Z,41.40
2022-09-28T14:37:21.601Z,41.40
2022-09-28T14:40:07.775Z,41.50
2022-09-28T14:42:34.843Z,41.50
2022-09-28T14:45:07.225Z,42.00
2022-09-28T14:48:05.372Z,41.40
2022-09-28T14:50:32.394Z,41.40
2022-09-28T14:53:23.244Z,41.80
2022-09-28T14:55:59.941Z,41.50
2022-09-28T14:58:29.848Z,41.90
2022-09-28T15:01:17.307Z,41.50
2022-09-28T15:03:48.407Z,41.50
2022-09-28T15:06:16.512Z,41.50
2022-09-28T15:08:43.406Z,41.60
2022-09-28T15:11:24.280Z,41.40
2022-09-28T15:14:06.261Z,40.90
2022-09-28T15:16:33.664Z,41.50
2022-09-28T15:19:36.723Z,41.60
2022-09-28T15:22:20.667Z,41.50
2022-09-28T15:25:03.223Z,41.40
2022-09-28T15:27:38.350Z,41.40
2022-09-28T15:30:32.195Z,41.40
2022-09-28T15:33:20.651Z,41.50
2022-09-28T15:36:01.807Z,41.40
2022-09-28T15:38:34.078Z,41.40
2022-09-28T15:41:07.420Z,41.50
2022-09-28T15:43:37.125Z,41.40
2022-09-28T15:46:16.358Z,41.40
2022-09-28T15:48:56.922Z,41.50
2022-09-28T15:51:25.864Z,41.40
2022-09-28T15:54:23.877Z,41.40
2022-09-28T15:57:01.919Z,41.50
2022-09-28T15:59:39.514Z,40.90
2022-09-28T16:02:22.515Z,41.50
2022-09-28T16:04:55.912Z,41.60
2022-09-28T16:07:33.417Z,41.50
2022-09-28T16:10:13.700Z,41.50
2022-09-28T16:12:42.136Z,41.50
2022-09-28T16:15:36.218Z,41.50
2022-09-28T16:18:20.188Z,41.60
2022-09-28T16:20:52.752Z,40.90
2022-09-28T16:23:31.188Z,41.40
2022-09-28T16:26:24.579Z,41.40
2022-09-28T16:28:52.099Z,41.50
2022-09-28T16:31:19.140Z,41.40
2022-09-28T16:33:58.995Z,41.30
2022-09-28T16:36:43.436Z,41.40
2022-09-28T16:39:12.268Z,41.30
2022-09-28T16:41:44.310Z,41.30
2022-09-28T16:44:24.204Z,41.40
2022-09-28T16:46:55.167Z,41.40
2022-09-28T16:49:25.462Z,41.40
2022-09-28T16:51:53.076Z,40.90
2022-09-28T16:54:44.121Z,41.40
2022-09-28T16:57:15.049Z,41.40
2022-09-28T16:59:41.979Z,41.50
2022-09-28T17:02:42.341Z,41.40
2022-09-28T17:05:07.128Z,41.40
2022-09-28T17:07:34.561Z,41.40
2022-09-28T17:10:01.528Z,41.40
2022-09-28T17:12:29.121Z,41.40
2022-09-28T17:14:56.191Z,41.80
2022-09-28T17:17:23.155Z,41.60
2022-09-28T17:19:50.064Z,41.40
2022-09-28T17:22:18.384Z,41.50
2022-09-28T17:24:46.138Z,41.50
2022-09-28T17:27:19.731Z,41.60
2022-09-28T17:29:46.759Z,41.50
2022-09-28T17:32:19.122Z,41.60
2022-09-28T17:34:55.977Z,41.60
2022-09-28T17:37:36.122Z,41.50
2022-09-28T17:40:18.589Z,40.90
2022-09-28T17:45:18.154Z,41.00
2022-09-28T17:47:45.500Z,41.00
2022-09-28T17:50:35.231Z,41.40
2022-09-28T17:53:06.076Z,41.50
2022-09-28T17:55:36.592Z,41.40
2022-09-28T17:58:21.262Z,41.60
2022-09-28T18:00:51.949Z,41.50
2022-09-28T18:03:22.818Z,41.50
2022-09-28T18:06:04.456Z,41.50
2022-09-28T18:08:37.255Z,41.50
2022-09-28T18:11:04.684Z,41.50
2022-09-28T18:13:31.732Z,41.60
2022-09-28T18:15:59.018Z,41.50
2022-09-28T18:18:26.632Z,41.60
2022-09-28T18:20:53.618Z,41.70
2022-09-28T18:23:20.899Z,41.50
2022-09-28T18:25:48.070Z,41.60
2022-09-28T18:28:15.403Z,41.60
2022-09-28T18:30:45.360Z,41.10
2022-09-28T18:33:14.443Z,41.70
2022-09-28T18:35:51.549Z,41.70
2022-09-28T18:38:18.782Z,41.60
2022-09-28T18:40:46.596Z,41.70
2022-09-28T18:43:16.785Z,41.70
2022-09-28T18:45:43.723Z,41.60
2022-09-28T18:48:10.742Z,41.60
2022-09-28T18:50:37.730Z,41.60
2022-09-28T18:53:13.987Z,41.10
2022-09-28T18:55:44.685Z,41.70
2022-09-28T18:58:13.254Z,41.70
2022-09-28T19:00:42.377Z,42.30
2022-09-28T19:03:12.001Z,41.70
2022-09-28T19:05:43.433Z,41.70
2022-09-28T19:08:10.495Z,41.20
2022-09-28T19:10:37.615Z,41.80
2022-09-28T19:13:04.634Z,41.80
2022-09-28T19:15:34.568Z,41.80
2022-09-28T19:18:01.750Z,41.80
2022-09-28T19:20:28.725Z,41.80
2022-09-28T19:22:55.770Z,41.90
2022-09-28T19:25:22.714Z,41.90
2022-09-28T19:27:49.642Z,41.80
2022-09-28T19:30:16.674Z,41.70
2022-09-28T19:32:43.773Z,41.80
2022-09-28T19:35:10.747Z,41.80
2022-09-28T19:37:39.296Z,41.80
2022-09-28T19:40:07.122Z,41.90
2022-09-28T19:42:36.180Z,41.70
2022-09-28T19:45:03.198Z,42.40
2022-09-28T19:47:30.548Z,41.90
2022-09-28T19:49:57.474Z,41.80
2022-09-28T19:52:24.442Z,41.80
2022-09-28T19:54:59.870Z,41.80
2022-09-28T19:57:31.810Z,41.90
2022-09-28T20:00:02.838Z,41.80
2022-09-28T20:02:30.354Z,41.80
2022-09-28T20:04:57.330Z,41.90
2022-09-28T20:07:24.249Z,41.90
2022-09-28T20:09:51.758Z,41.90
2022-09-28T20:12:18.880Z,41.90
2022-09-28T20:14:45.943Z,42.00
2022-09-28T20:17:12.903Z,41.90
2022-09-28T20:19:39.808Z,41.90
2022-09-28T20:22:06.773Z,41.90
2022-09-28T20:24:33.865Z,41.90
2022-09-28T20:27:01.577Z,41.90
2022-09-28T20:29:31.670Z,42.00
2022-09-28T20:31:59.047Z,42.00
2022-09-28T20:34:28.687Z,42.00
2022-09-28T20:36:55.744Z,41.90
2022-09-28T20:39:22.730Z,41.90
2022-09-28T20:41:49.595Z,41.90
2022-09-28T20:44:16.805Z,41.90
2022-09-28T20:46:44.173Z,42.50
2022-09-28T20:49:11.718Z,42.00
2022-09-28T20:51:38.613Z,42.00
2022-09-28T20:54:05.654Z,42.00
2022-09-28T20:56:38.730Z,42.00
2022-09-28T20:59:09.685Z,42.00
2022-09-28T21:01:37.067Z,42.00
2022-09-28T21:04:07.918Z,42.40
2022-09-28T21:06:39.290Z,42.00
2022-09-28T21:09:08.105Z,42.10
2022-09-28T21:11:35.688Z,42.00
2022-09-28T21:14:06.432Z,42.00
2022-09-28T21:16:35.427Z,43.20
2022-09-28T21:19:03.268Z,42.10
2022-09-28T21:21:30.352Z,42.10
2022-09-28T21:23:58.737Z,42.10
2022-09-28T21:26:29.615Z,42.10
2022-09-28T21:29:00.482Z,42.10
2022-09-28T21:31:32.765Z,42.10
2022-09-28T21:34:01.530Z,42.10
2022-09-28T21:36:28.379Z,42.10
2022-09-28T21:38:56.095Z,42.10
2022-09-28T21:41:24.598Z,42.10
2022-09-28T21:43:53.188Z,42.10
2022-09-28T21:46:20.204Z,42.10
2022-09-28T21:48:53.439Z,42.00
2022-09-28T21:51:21.422Z,42.10
2022-09-28T21:53:49.242Z,42.10
2022-09-28T21:56:16.228Z,42.10
2022-09-28T21:58:43.050Z,42.10
2022-09-28T22:01:19.496Z,42.10
2022-09-28T22:03:56.577Z,42.20
2022-09-28T22:06:32.503Z,41.60
2022-09-28T22:08:59.373Z,42.20
2022-09-28T22:11:30.928Z,42.10
2022-09-28T22:14:00.013Z,42.20
2022-09-28T22:16:31.713Z,42.10
2022-09-28T22:18:59.842Z,42.80
2022-09-28T22:21:33.352Z,42.20
2022-09-28T22:24:02.899Z,42.20
2022-09-28T22:26:32.162Z,42.20
2022-09-28T22:29:05.693Z,42.30
2022-09-28T22:31:36.960Z,42.20
2022-09-28T22:34:05.370Z,42.70
2022-09-28T22:36:33.324Z,42.10
2022-09-28T22:39:03.852Z,42.10
2022-09-28T22:41:32.065Z,42.30
2022-09-28T22:43:59.427Z,42.20
2022-09-28T22:46:29.797Z,42.20
2022-09-28T22:48:59.194Z,42.20
2022-09-28T22:51:29.180Z,42.20
2022-09-28T22:53:56.675Z,42.20
2022-09-28T22:56:24.534Z,42.20
2022-09-28T22:58:51.471Z,41.80
2022-09-28T23:01:22.568Z,42.20
2022-09-28T23:03:52.074Z,42.20
2022-09-28T23:06:24.050Z,42.20
2022-09-28T23:08:52.544Z,42.30
2022-09-28T23:11:20.023Z,42.30
2022-09-28T23:13:58.164Z,42.30
2022-09-28T23:16:26.800Z,42.30
2022-09-28T23:18:55.629Z,42.30
2022-09-28T23:21:26.811Z,42.30
2022-09-28T23:24:01.452Z,42.30
2022-09-28T23:26:32.676Z,42.30
2022-09-28T23:29:03.340Z,42.30
2022-09-28T23:31:32.881Z,42.30
2022-09-28T23:34:03.110Z,42.30
2022-09-28T23:36:30.755Z,42.20
2022-09-28T23:38:58.002Z,42.30
2022-09-28T23:41:24.942Z,42.20
2022-09-28T23:43:51.860Z,42.60
2022-09-28T23:46:20.981Z,41.70
2022-09-28T23:48:49.342Z,42.30
2022-09-28T23:51:16.575Z,42.30
2022-09-28T23:53:43.654Z,42.30
2022-09-28T23:56:11.256Z,42.30
2022-09-28T23:58:38.167Z,42.30
